createdAt,value
2017-11-15T00:01:02.009Z,36.83
2017-11-15T00:02:04.496Z,45.03
2017-11-15T00:03:06.984Z,48.70
2017-11-15T00:04:09.473Z,45.67
2017-11-15T00:05:11.953Z,40.08
2017-11-15T00:06:14.412Z,47.40
2017-11-15T00:07:16.909Z,44.17
2017-11-15T00:08:19.379Z,42.50
2017-11-15T00:09:21.857Z,45.35
2017-11-15T00:10:24.327Z,46.22
2017-11-15T00:11:26.788Z,42.95
2017-11-15T00:12:29.288Z,41.55
2017-11-15T00:13:31.757Z,43.03
2017-11-15T00:14:34.228Z,40.97
2017-11-15T00:15:36.687Z,48.78
2017-11-15T00:16:39.155Z,40.63
2017-11-15T00:17:41.666Z,36.90
2017-11-15T00:18:44.138Z,42.13
2017-11-15T00:19:46.603Z,49.50
2017-11-15T00:20:49.063Z,39.45
2017-11-15T00:21:51.523Z,37.20
2017-11-15T00:22:54.042Z,39.90
2017-11-15T00:23:56.516Z,44.85
2017-11-15T00:24:58.996Z,39.15
2017-11-15T00:26:01.488Z,35.45
2017-11-15T00:27:03.967Z,40.08
2017-11-15T00:28:06.483Z,41.45
2017-11-15T00:29:08.958Z,43.65
2017-11-15T00:30:11.446Z,44.83
2017-11-15T00:31:13.929Z,46.08
2017-11-15T00:32:16.443Z,54.28
2017-11-15T00:33:18.933Z,40.88
2017-11-15T00:34:21.396Z,47.55
2017-11-15T00:35:23.878Z,57.03
2017-11-15T00:36:26.359Z,55.63
2017-11-15T00:37:28.827Z,49.97
2017-11-15T00:38:31.330Z,47.92
2017-11-15T00:39:33.827Z,48.33
2017-11-15T00:40:36.287Z,41.40
2017-11-15T00:41:38.752Z,50.03
2017-11-15T00:42:41.219Z,52.55
2017-11-15T00:43:43.722Z,50.05
2017-11-15T00:44:46.212Z,48.67
2017-11-15T00:45:48.675Z,46.30
2017-11-15T00:46:51.149Z,47.13
2017-11-15T00:47:53.629Z,52.17
2017-11-15T00:48:56.127Z,49.65
2017-11-15T00:49:59.159Z,48.83
2017-11-15T00:51:01.633Z,52.70
2017-11-15T00:52:04.109Z,52.75
2017-11-15T00:53:06.595Z,49.80
2017-11-15T00:54:09.090Z,53.38
2017-11-15T00:55:11.572Z,55.28
2017-11-15T00:56:14.050Z,61.08
2017-11-15T00:57:16.512Z,49.25
2017-11-15T00:58:18.980Z,43.72
2017-11-15T00:59:21.444Z,48.50
2017-11-15T01:00:23.928Z,58.25
2017-11-15T01:01:26.401Z,61.75
2017-11-15T01:02:28.863Z,52.25
2017-11-15T01:03:31.332Z,49.38
2017-11-15T01:04:33.819Z,70.65
2017-11-15T01:05:36.302Z,61.45
2017-11-15T01:06:38.779Z,57.85
2017-11-15T01:07:41.263Z,65.37
2017-11-15T01:08:43.727Z,54.05
2017-11-15T01:09:46.196Z,54.17
2017-11-15T01:10:48.663Z,55.42
2017-11-15T01:11:51.144Z,61.42
2017-11-15T01:12:53.619Z,61.47
2017-11-15T01:13:56.081Z,51.13
2017-11-15T01:14:58.548Z,48.75
2017-11-15T01:16:01.030Z,54.40
2017-11-15T01:17:03.497Z,62.20
2017-11-15T01:18:05.977Z,45.20
2017-11-15T01:19:08.456Z,65.47
2017-11-15T01:20:10.926Z,57.65
2017-11-15T01:21:13.421Z,72.65
2017-11-15T01:22:15.893Z,57.45
2017-11-15T01:23:18.374Z,66.30
2017-11-15T01:24:20.855Z,56.22
2017-11-15T01:25:23.342Z,63.25
2017-11-15T01:26:25.818Z,53.10
2017-11-15T01:27:28.290Z,75.75
2017-11-15T01:28:30.769Z,72.32
2017-11-15T01:29:33.241Z,70.68
2017-11-15T01:30:35.711Z,63.58
2017-11-15T01:31:38.203Z,60.17
2017-11-15T01:32:40.677Z,59.78
2017-11-15T01:33:43.162Z,62.83
2017-11-15T01:34:45.658Z,66.05
2017-11-15T01:35:48.128Z,64.57
2017-11-15T01:36:50.611Z,63.53
2017-11-15T01:37:53.098Z,67.68
2017-11-15T01:38:55.586Z,63.85
2017-11-15T01:39:58.391Z,68.15
2017-11-15T01:41:00.866Z,70.85
2017-11-15T01:42:03.330Z,59.80
2017-11-15T01:43:05.810Z,71.12
2017-11-15T01:44:08.298Z,88.07
2017-11-15T01:45:10.761Z,72.78
2017-11-15T01:46:13.246Z,75.87
2017-11-15T01:47:15.712Z,64.62
2017-11-15T01:48:18.215Z,59.38
2017-11-15T01:49:20.685Z,67.53
2017-11-15T01:50:23.169Z,70.28
2017-11-15T01:51:25.645Z,68.15
2017-11-15T01:52:28.121Z,56.70
2017-11-15T01:53:30.579Z,67.50
2017-11-15T01:54:33.062Z,63.15
2017-11-15T01:55:35.542Z,62.30
2017-11-15T01:56:38.012Z,67.40
2017-11-15T01:57:40.478Z,61.83
2017-11-15T01:58:42.954Z,57.72
2017-11-15T01:59:45.441Z,70.32
2017-11-15T02:00:59.648Z,62.30
2017-11-15T02:02:02.130Z,63.85
2017-11-15T02:03:04.592Z,68.03
2017-11-15T02:04:07.080Z,66.72
2017-11-15T02:05:09.551Z,63.85
2017-11-15T02:06:12.036Z,64.82
2017-11-15T02:07:14.505Z,58.97
2017-11-15T02:08:16.983Z,63.87
2017-11-15T02:09:19.456Z,63.95
2017-11-15T02:10:21.918Z,54.92
2017-11-15T02:11:24.398Z,76.72
2017-11-15T02:12:26.878Z,68.93
2017-11-15T02:13:29.339Z,54.83
2017-11-15T02:14:31.803Z,68.87
2017-11-15T02:15:34.269Z,65.40
2017-11-15T02:16:36.742Z,59.17
2017-11-15T02:17:39.204Z,78.32
2017-11-15T02:18:41.676Z,70.80
2017-11-15T02:19:44.165Z,72.65
2017-11-15T02:20:46.643Z,60.35
2017-11-15T02:21:49.126Z,53.65
2017-11-15T02:22:51.608Z,74.43
2017-11-15T02:23:54.081Z,71.35
2017-11-15T02:24:56.564Z,69.03
2017-11-15T02:25:59.048Z,67.12
2017-11-15T02:27:01.527Z,76.65
2017-11-15T02:28:03.997Z,69.57
2017-11-15T02:29:06.492Z,61.10
2017-11-15T02:30:08.965Z,63.85
2017-11-15T02:31:11.473Z,68.00
2017-11-15T02:32:13.964Z,71.25
2017-11-15T02:33:16.454Z,60.53
2017-11-15T02:34:18.915Z,60.08
2017-11-15T02:35:21.378Z,63.63
2017-11-15T02:36:23.853Z,67.47
2017-11-15T02:37:26.344Z,69.22
2017-11-15T02:38:28.829Z,64.18
2017-11-15T02:39:31.295Z,76.07
2017-11-15T02:40:33.786Z,70.05
2017-11-15T02:41:36.259Z,70.50
2017-11-15T02:42:38.739Z,70.65
2017-11-15T02:43:41.222Z,66.90
2017-11-15T02:44:43.692Z,72.18
2017-11-15T02:45:46.170Z,71.57
2017-11-15T02:46:48.636Z,70.18
2017-11-15T02:47:51.104Z,71.95
2017-11-15T02:48:53.581Z,65.87
2017-11-15T02:49:56.040Z,61.20
2017-11-15T02:50:58.500Z,62.33
2017-11-15T02:52:00.998Z,70.07
2017-11-15T02:53:03.464Z,65.35
2017-11-15T02:54:05.965Z,68.30
2017-11-15T02:55:08.439Z,68.85
2017-11-15T02:56:10.919Z,62.28
2017-11-15T02:57:13.395Z,75.40
2017-11-15T02:58:15.887Z,67.47
2017-11-15T02:59:18.349Z,74.05
2017-11-15T03:00:20.825Z,74.90
2017-11-15T03:01:23.306Z,74.28
2017-11-15T03:02:25.771Z,69.97
2017-11-15T03:03:28.232Z,74.15
2017-11-15T03:04:30.717Z,73.60
2017-11-15T03:05:33.179Z,70.10
2017-11-15T03:06:35.644Z,62.92
2017-11-15T03:07:38.109Z,72.80
2017-11-15T03:08:40.585Z,73.70
2017-11-15T03:09:43.054Z,79.90
2017-11-15T03:10:45.516Z,63.17
2017-11-15T03:11:48.027Z,61.95
2017-11-15T03:12:50.507Z,76.22
2017-11-15T03:13:52.990Z,68.62
2017-11-15T03:14:55.473Z,70.80
2017-11-15T03:15:57.947Z,60.05
2017-11-15T03:17:00.418Z,66.43
2017-11-15T03:18:02.898Z,81.15
2017-11-15T03:19:05.378Z,72.30
2017-11-15T03:20:07.858Z,65.75
2017-11-15T03:21:15.070Z,68.68
2017-11-15T03:22:17.547Z,68.57
2017-11-15T03:23:20.020Z,61.00
2017-11-15T03:24:22.489Z,60.50
2017-11-15T03:25:24.952Z,62.13
2017-11-15T03:26:27.576Z,67.55
2017-11-15T03:27:30.061Z,70.32
2017-11-15T03:28:32.538Z,55.15
2017-11-15T03:29:35.008Z,69.40
2017-11-15T03:30:37.505Z,62.97
2017-11-15T03:31:39.993Z,70.72
2017-11-15T03:32:42.540Z,65.20
2017-11-15T03:33:45.015Z,69.72
2017-11-15T03:34:47.486Z,69.60
2017-11-15T03:35:49.952Z,62.90
2017-11-15T03:36:52.416Z,76.45
2017-11-15T03:37:54.883Z,74.72
2017-11-15T03:38:57.358Z,68.03
2017-11-15T03:39:59.841Z,65.32
2017-11-15T03:41:02.335Z,78.18
2017-11-15T03:42:04.820Z,57.33
2017-11-15T03:43:07.301Z,72.53
2017-11-15T03:44:09.768Z,70.68
2017-11-15T03:45:12.256Z,77.75
2017-11-15T03:46:14.746Z,62.30
2017-11-15T03:47:17.211Z,67.28
2017-11-15T03:48:19.694Z,69.12
2017-11-15T03:49:22.178Z,73.72
2017-11-15T03:50:24.645Z,64.10
2017-11-15T03:51:27.108Z,69.37
2017-11-15T03:52:29.568Z,67.47
2017-11-15T03:53:32.050Z,69.40
2017-11-15T03:54:34.529Z,78.28
2017-11-15T03:55:37.019Z,69.87
2017-11-15T03:56:39.510Z,69.45
2017-11-15T03:57:41.986Z,73.47
2017-11-15T03:58:44.452Z,70.65
2017-11-15T03:59:46.925Z,78.03
2017-11-15T04:00:49.424Z,70.75
2017-11-15T04:01:51.902Z,73.18
2017-11-15T04:02:54.381Z,71.95
2017-11-15T04:03:56.844Z,72.00
2017-11-15T04:04:59.313Z,70.32
2017-11-15T04:06:01.806Z,68.85
2017-11-15T04:07:04.302Z,67.97
2017-11-15T04:08:06.764Z,69.25
2017-11-15T04:09:09.252Z,69.50
2017-11-15T04:10:11.721Z,51.60
2017-11-15T04:11:14.214Z,55.47
2017-11-15T04:12:16.680Z,65.93
2017-11-15T04:13:19.160Z,70.07
2017-11-15T04:14:21.633Z,64.30
2017-11-15T04:15:24.105Z,66.12
2017-11-15T04:16:26.611Z,58.40
2017-11-15T04:17:29.076Z,56.65
2017-11-15T04:18:31.557Z,57.95
2017-11-15T04:19:34.038Z,60.30
2017-11-15T04:20:36.503Z,54.25
2017-11-15T04:21:39.007Z,63.97
2017-11-15T04:22:41.469Z,58.55
2017-11-15T04:23:43.941Z,57.05
2017-11-15T04:24:46.443Z,63.65
2017-11-15T04:25:48.928Z,57.25
2017-11-15T04:26:51.432Z,54.15
2017-11-15T04:27:53.914Z,52.60
2017-11-15T04:28:56.408Z,58.00
2017-11-15T04:29:59.681Z,54.72
2017-11-15T04:31:02.162Z,56.47
2017-11-15T04:32:04.648Z,59.65
2017-11-15T04:33:07.120Z,59.50
2017-11-15T04:34:09.579Z,65.72
2017-11-15T04:35:12.047Z,60.53
2017-11-15T04:36:14.510Z,51.83
2017-11-15T04:37:17.000Z,49.58
2017-11-15T04:38:19.460Z,53.58
2017-11-15T04:39:21.939Z,58.42
2017-11-15T04:40:24.416Z,53.03
2017-11-15T04:41:26.903Z,55.10
2017-11-15T04:42:29.401Z,64.22
2017-11-15T04:43:31.881Z,54.63
2017-11-15T04:44:34.363Z,60.53
2017-11-15T04:45:39.994Z,59.58
2017-11-15T04:46:42.456Z,65.28
2017-11-15T04:47:44.958Z,66.70
2017-11-15T04:48:47.440Z,64.10
2017-11-15T04:49:49.910Z,56.95
2017-11-15T04:50:52.393Z,64.25
2017-11-15T04:51:54.867Z,59.25
2017-11-15T04:52:57.424Z,52.88
2017-11-15T04:53:59.899Z,58.90
2017-11-15T04:55:02.364Z,65.82
2017-11-15T04:56:04.845Z,55.03
2017-11-15T04:57:07.308Z,60.67
2017-11-15T04:58:09.810Z,60.40
2017-11-15T04:59:12.287Z,50.72
2017-11-15T05:00:14.761Z,63.05
2017-11-15T05:01:17.251Z,56.03
2017-11-15T05:02:19.711Z,56.78
2017-11-15T05:03:22.211Z,57.80
2017-11-15T05:04:25.461Z,68.72
2017-11-15T05:05:28.136Z,62.58
2017-11-15T05:06:30.628Z,64.35
2017-11-15T05:07:33.129Z,65.93
2017-11-15T05:08:36.171Z,55.17
2017-11-15T05:09:38.696Z,62.15
2017-11-15T05:10:41.195Z,60.08
2017-11-15T05:11:43.669Z,69.45
2017-11-15T05:12:46.148Z,60.53
2017-11-15T05:13:48.650Z,55.60
2017-11-15T05:14:51.107Z,63.78
2017-11-15T05:15:53.585Z,67.82
2017-11-15T05:16:56.338Z,59.47
2017-11-15T05:17:58.804Z,62.42
2017-11-15T05:19:01.321Z,55.35
2017-11-15T05:20:03.788Z,59.50
2017-11-15T05:21:06.261Z,68.70
2017-11-15T05:22:08.769Z,54.25
2017-11-15T05:23:11.257Z,57.80
2017-11-15T05:24:13.769Z,53.92
2017-11-15T05:25:16.247Z,57.28
2017-11-15T05:26:18.717Z,48.08
2017-11-15T05:27:21.189Z,53.40
2017-11-15T05:28:23.671Z,53.05
2017-11-15T05:29:26.190Z,53.55
2017-11-15T05:30:28.655Z,54.60
2017-11-15T05:31:31.135Z,54.90
2017-11-15T05:32:33.606Z,55.20
2017-11-15T05:33:36.068Z,62.08
2017-11-15T05:34:38.530Z,60.92
2017-11-15T05:35:41.001Z,56.35
2017-11-15T05:36:43.489Z,55.38
2017-11-15T05:37:45.970Z,61.28
2017-11-15T05:38:48.450Z,54.80
2017-11-15T05:39:50.932Z,60.90
2017-11-15T05:40:53.415Z,51.08
2017-11-15T05:41:55.901Z,45.95
2017-11-15T05:42:58.380Z,59.22
2017-11-15T05:44:00.859Z,56.72
2017-11-15T05:45:03.343Z,58.63
2017-11-15T05:46:05.822Z,56.13
2017-11-15T05:47:08.287Z,47.33
2017-11-15T05:48:10.772Z,53.33
2017-11-15T05:49:13.244Z,53.38
2017-11-15T05:50:15.714Z,63.53
2017-11-15T05:51:18.209Z,53.85
2017-11-15T05:52:20.711Z,52.97
2017-11-15T05:53:23.205Z,63.58
2017-11-15T05:54:25.680Z,59.97
2017-11-15T05:55:28.140Z,54.78
2017-11-15T05:56:30.644Z,74.32
2017-11-15T05:57:33.125Z,60.47
2017-11-15T05:58:35.639Z,55.22
2017-11-15T05:59:38.110Z,59.80
2017-11-15T06:00:40.579Z,57.38
2017-11-15T06:01:43.042Z,61.65
2017-11-15T06:02:45.519Z,55.25
2017-11-15T06:03:48.006Z,58.20
2017-11-15T06:04:50.490Z,54.58
2017-11-15T06:05:52.951Z,55.28
2017-11-15T06:06:55.439Z,51.00
2017-11-15T06:07:57.913Z,54.03
2017-11-15T06:09:00.386Z,67.65
2017-11-15T06:10:02.887Z,54.13
2017-11-15T06:11:05.380Z,64.00
2017-11-15T06:12:07.853Z,58.08
2017-11-15T06:13:10.330Z,61.33
2017-11-15T06:14:12.873Z,54.33
2017-11-15T06:15:15.425Z,61.03
2017-11-15T06:16:17.825Z,58.17
2017-11-15T06:17:20.289Z,58.10
2017-11-15T06:18:22.812Z,57.45
2017-11-15T06:19:25.261Z,59.38
2017-11-15T06:20:27.743Z,55.88
2017-11-15T06:21:30.223Z,57.45
2017-11-15T06:22:32.830Z,62.58
2017-11-15T06:23:35.329Z,59.65
2017-11-15T06:24:37.767Z,56.15
2017-11-15T06:25:40.213Z,58.28
2017-11-15T06:26:42.781Z,57.92
2017-11-15T06:27:45.237Z,64.37
2017-11-15T06:28:47.755Z,74.85
2017-11-15T06:29:50.309Z,61.28
2017-11-15T06:30:52.838Z,62.88
2017-11-15T06:31:55.316Z,63.00
2017-11-15T06:32:57.710Z,63.87
2017-11-15T06:34:00.179Z,61.50
2017-11-15T06:35:02.657Z,66.60
2017-11-15T06:36:05.212Z,68.82
2017-11-15T06:37:07.739Z,56.78
2017-11-15T06:38:10.141Z,65.10
2017-11-15T06:39:12.612Z,59.83
2017-11-15T06:40:15.077Z,65.00
2017-11-15T06:41:17.556Z,56.47
2017-11-15T06:42:20.046Z,62.58
2017-11-15T06:43:22.526Z,57.65
2017-11-15T06:44:24.998Z,55.90
2017-11-15T06:45:27.482Z,63.67
2017-11-15T06:46:29.982Z,68.47
2017-11-15T06:47:32.469Z,68.57
2017-11-15T06:48:34.951Z,63.05
2017-11-15T06:49:37.429Z,57.90
2017-11-15T06:50:39.914Z,61.40
2017-11-15T06:51:42.396Z,70.28
2017-11-15T06:52:44.911Z,57.30
2017-11-15T06:53:47.377Z,67.12
2017-11-15T06:54:49.856Z,59.20
2017-11-15T06:55:52.324Z,55.15
2017-11-15T06:56:54.808Z,64.12
2017-11-15T06:57:57.300Z,68.10
2017-11-15T06:58:59.764Z,62.45
2017-11-15T07:00:02.238Z,66.80
2017-11-15T07:01:04.713Z,55.38
2017-11-15T07:02:07.196Z,56.75
2017-11-15T07:03:09.675Z,54.63
2017-11-15T07:04:12.149Z,57.35
2017-11-15T07:05:14.615Z,55.15
2017-11-15T07:06:17.085Z,51.60
2017-11-15T07:07:19.600Z,57.60
2017-11-15T07:08:22.084Z,60.72
2017-11-15T07:09:24.551Z,65.40
2017-11-15T07:10:27.033Z,55.72
2017-11-15T07:11:29.578Z,54.28
2017-11-15T07:12:32.051Z,60.83
2017-11-15T07:13:34.529Z,63.80
2017-11-15T07:14:36.995Z,53.65
2017-11-15T07:15:39.475Z,53.35
2017-11-15T07:16:41.949Z,65.78
2017-11-15T07:17:44.426Z,62.85
2017-11-15T07:18:46.953Z,54.83
2017-11-15T07:19:49.465Z,63.92
2017-11-15T07:20:51.971Z,63.35
2017-11-15T07:21:54.454Z,60.47
2017-11-15T07:22:56.985Z,60.75
2017-11-15T07:23:59.493Z,63.25
2017-11-15T07:25:02.011Z,57.40
2017-11-15T07:26:04.475Z,57.33
2017-11-15T07:27:06.959Z,55.35
2017-11-15T07:28:09.440Z,54.22
2017-11-15T07:29:11.927Z,64.82
2017-11-15T07:30:14.404Z,61.75
2017-11-15T07:31:16.885Z,68.65
2017-11-15T07:32:19.367Z,60.00
2017-11-15T07:33:21.847Z,57.33
2017-11-15T07:34:24.335Z,53.60
2017-11-15T07:35:26.862Z,62.53
2017-11-15T07:36:29.343Z,52.88
2017-11-15T07:37:31.831Z,50.12
2017-11-15T07:38:34.292Z,60.90
2017-11-15T07:39:36.761Z,57.17
2017-11-15T07:40:39.255Z,52.25
2017-11-15T07:41:41.737Z,52.00
2017-11-15T07:42:44.237Z,50.03
2017-11-15T07:43:46.753Z,49.03
2017-11-15T07:44:49.235Z,50.92
2017-11-15T07:45:51.701Z,53.50
2017-11-15T07:46:54.201Z,48.30
2017-11-15T07:47:56.685Z,56.13
2017-11-15T07:48:59.176Z,50.83
2017-11-15T07:50:01.645Z,52.50
2017-11-15T07:51:04.121Z,49.75
2017-11-15T07:52:06.592Z,51.53
2017-11-15T07:53:09.077Z,43.75
2017-11-15T07:54:11.575Z,53.35
2017-11-15T07:55:14.062Z,48.20
2017-11-15T07:56:16.545Z,42.55
2017-11-15T07:57:19.035Z,38.85
2017-11-15T07:58:21.510Z,43.80
2017-11-15T07:59:24.010Z,55.63
2017-11-15T08:00:26.494Z,43.00
2017-11-15T08:01:28.959Z,44.67
2017-11-15T08:02:31.421Z,50.17
2017-11-15T08:03:33.880Z,45.25
2017-11-15T08:04:36.368Z,45.75
2017-11-15T08:05:38.847Z,44.72
2017-11-15T08:06:41.372Z,40.40
2017-11-15T08:07:43.836Z,46.05
2017-11-15T08:08:46.305Z,43.00
2017-11-15T08:09:48.798Z,47.65
2017-11-15T08:10:51.285Z,36.15
2017-11-15T08:11:53.772Z,41.67
2017-11-15T08:12:56.238Z,43.33
2017-11-15T08:13:58.712Z,40.67
2017-11-15T08:15:01.231Z,38.70
2017-11-15T08:16:04.089Z,41.35
2017-11-15T08:17:06.539Z,40.80
2017-11-15T08:18:09.019Z,44.15
2017-11-15T08:19:11.520Z,43.35
2017-11-15T08:20:14.012Z,42.42
2017-11-15T08:21:16.503Z,45.83
2017-11-15T08:22:18.992Z,34.83
2017-11-15T08:23:21.757Z,41.97
2017-11-15T08:24:24.238Z,44.80
2017-11-15T08:25:26.768Z,37.08
2017-11-15T08:26:29.246Z,39.65
2017-11-15T08:27:31.741Z,43.63
2017-11-15T08:28:34.204Z,35.45
2017-11-15T08:29:36.698Z,49.60
2017-11-15T08:30:39.206Z,38.03
2017-11-15T08:31:41.697Z,37.53
2017-11-15T08:32:44.160Z,36.28
2017-11-15T08:33:46.631Z,37.88
2017-11-15T08:34:49.112Z,35.45
2017-11-15T08:35:51.617Z,41.05
2017-11-15T08:36:54.099Z,40.72
2017-11-15T08:37:56.568Z,39.95
2017-11-15T08:38:59.028Z,38.42
2017-11-15T08:40:01.507Z,38.40
2017-11-15T08:41:03.998Z,33.10
2017-11-15T08:42:06.494Z,39.22
2017-11-15T08:43:08.956Z,44.33
2017-11-15T08:44:11.442Z,40.97
2017-11-15T08:45:13.946Z,42.38
2017-11-15T08:46:16.458Z,46.20
2017-11-15T08:47:18.939Z,43.95
2017-11-15T08:48:21.421Z,36.63
2017-11-15T08:49:23.902Z,42.50
2017-11-15T08:50:26.377Z,41.58
2017-11-15T08:51:28.873Z,42.85
2017-11-15T08:52:31.362Z,45.22
2017-11-15T08:53:33.836Z,40.00
2017-11-15T08:54:36.318Z,35.63
2017-11-15T08:55:38.798Z,37.92
2017-11-15T08:56:41.311Z,43.60
2017-11-15T08:57:43.791Z,41.65
2017-11-15T08:58:46.261Z,35.67
2017-11-15T08:59:48.729Z,42.47
2017-11-15T09:00:51.219Z,36.45
2017-11-15T09:01:53.753Z,42.08
2017-11-15T09:02:56.239Z,34.35
2017-11-15T09:03:58.718Z,42.60
2017-11-15T09:05:01.224Z,39.28
2017-11-15T09:06:03.703Z,37.63
2017-11-15T09:07:06.206Z,38.13
2017-11-15T09:08:08.681Z,38.20
2017-11-15T09:09:11.147Z,44.08
2017-11-15T09:10:13.622Z,41.30
2017-11-15T09:11:16.116Z,43.50
2017-11-15T09:12:18.622Z,39.88
2017-11-15T09:13:21.096Z,36.60
2017-11-15T09:14:23.576Z,35.03
2017-11-15T09:15:26.053Z,38.67
2017-11-15T09:16:28.544Z,36.05
2017-11-15T09:17:31.110Z,39.85
2017-11-15T09:18:33.586Z,39.63
2017-11-15T09:19:36.073Z,38.17
2017-11-15T09:20:38.554Z,34.75
2017-11-15T09:21:41.030Z,39.85
2017-11-15T09:22:43.516Z,36.67
2017-11-15T09:23:46.007Z,37.55
2017-11-15T09:24:48.489Z,34.60
2017-11-15T09:25:51.111Z,34.35
2017-11-15T09:26:53.581Z,34.38
2017-11-15T09:27:56.065Z,29.10
2017-11-15T09:28:58.532Z,31.00
2017-11-15T09:30:02.919Z,38.25
2017-11-15T09:31:05.376Z,34.53
2017-11-15T09:32:07.848Z,39.50
2017-11-15T09:33:10.353Z,33.42
2017-11-15T09:34:12.839Z,35.40
2017-11-15T09:35:15.306Z,29.12
2017-11-15T09:36:17.763Z,35.33
2017-11-15T09:37:20.236Z,33.03
2017-11-15T09:38:22.725Z,39.20
2017-11-15T09:39:25.202Z,35.60
2017-11-15T09:40:27.690Z,33.75
2017-11-15T09:41:30.169Z,36.70
2017-11-15T09:42:32.628Z,38.00
2017-11-15T09:43:35.133Z,37.03
2017-11-15T09:44:37.603Z,32.80
2017-11-15T09:45:40.068Z,35.22
2017-11-15T09:46:42.532Z,35.78
2017-11-15T09:47:45.012Z,35.08
2017-11-15T09:48:47.515Z,37.50
2017-11-15T09:49:49.987Z,34.05
2017-11-15T09:50:52.479Z,30.67
2017-11-15T09:51:54.939Z,37.80
2017-11-15T09:52:57.400Z,39.35
2017-11-15T09:53:59.888Z,38.78
2017-11-15T09:55:02.375Z,33.50
2017-11-15T09:56:04.837Z,29.17
2017-11-15T09:57:07.299Z,34.78
2017-11-15T09:58:09.764Z,32.75
2017-11-15T09:59:12.248Z,36.60
2017-11-15T10:00:14.725Z,32.30
2017-11-15T10:01:17.202Z,35.08
2017-11-15T10:02:19.684Z,42.05
2017-11-15T10:03:22.145Z,35.72
2017-11-15T10:04:24.656Z,31.52
2017-11-15T10:05:27.125Z,40.25
2017-11-15T10:06:29.588Z,36.13
2017-11-15T10:07:32.118Z,33.58
2017-11-15T10:08:34.613Z,33.65
2017-11-15T10:09:37.105Z,37.80
2017-11-15T10:10:39.581Z,36.97
2017-11-15T10:11:42.064Z,34.20
2017-11-15T10:12:44.535Z,40.47
2017-11-15T10:13:47.001Z,28.73
2017-11-15T10:14:49.488Z,33.80
2017-11-15T10:15:51.953Z,35.95
2017-11-15T10:17:08.779Z,28.50
2017-11-15T10:18:11.335Z,37.20
2017-11-15T10:19:13.831Z,27.08
2017-11-15T10:20:16.340Z,32.80
2017-11-15T10:21:19.331Z,30.70
2017-11-15T10:22:21.818Z,27.55
2017-11-15T10:23:24.378Z,26.77
2017-11-15T10:24:26.876Z,32.70
2017-11-15T10:25:29.405Z,24.83
2017-11-15T10:26:31.863Z,33.55
2017-11-15T10:27:34.325Z,31.67
2017-11-15T10:28:36.816Z,30.02
2017-11-15T10:29:39.507Z,32.13
2017-11-15T10:30:41.993Z,31.75
2017-11-15T10:31:44.457Z,31.15
2017-11-15T10:32:46.938Z,29.70
2017-11-15T10:33:49.411Z,28.17
2017-11-15T10:34:51.872Z,23.12
2017-11-15T10:35:54.359Z,23.58
2017-11-15T10:36:56.830Z,27.80
2017-11-15T10:37:59.307Z,29.80
2017-11-15T10:39:01.772Z,24.87
2017-11-15T10:40:04.232Z,28.33
2017-11-15T10:41:06.754Z,25.42
2017-11-15T10:42:09.231Z,33.65
2017-11-15T10:43:11.704Z,30.90
2017-11-15T10:44:14.181Z,26.67
2017-11-15T10:45:16.659Z,32.42
2017-11-15T10:46:19.149Z,29.58
2017-11-15T10:47:21.617Z,25.48
2017-11-15T10:48:24.076Z,28.83
2017-11-15T10:49:26.540Z,26.20
2017-11-15T10:50:28.996Z,25.95
2017-11-15T10:51:31.519Z,30.30
2017-11-15T10:52:33.984Z,28.30
2017-11-15T10:53:36.462Z,29.85
2017-11-15T10:54:38.938Z,33.15
2017-11-15T10:55:41.418Z,27.42
2017-11-15T10:56:43.926Z,32.00
2017-11-15T10:57:46.398Z,31.42
2017-11-15T10:58:48.899Z,25.00
2017-11-15T10:59:51.384Z,27.77
2017-11-15T11:00:53.846Z,25.33
2017-11-15T11:01:56.333Z,25.85
2017-11-15T11:02:58.804Z,24.63
2017-11-15T11:04:01.316Z,25.23
2017-11-15T11:05:03.788Z,26.20
2017-11-15T11:06:06.278Z,24.45
2017-11-15T11:07:08.765Z,30.37
2017-11-15T11:08:11.244Z,26.05
2017-11-15T11:09:13.721Z,27.08
2017-11-15T11:10:16.184Z,27.30
2017-11-15T11:11:18.662Z,26.62
2017-11-15T11:12:21.159Z,30.00
2017-11-15T11:13:23.629Z,29.30
2017-11-15T11:14:26.128Z,31.00
2017-11-15T11:15:28.588Z,30.88
2017-11-15T11:16:31.134Z,36.50
2017-11-15T11:17:33.635Z,23.50
2017-11-15T11:18:36.134Z,31.33
2017-11-15T11:19:38.614Z,27.70
2017-11-15T11:20:41.080Z,28.52
2017-11-15T11:21:43.555Z,27.37
2017-11-15T11:22:46.060Z,24.17
2017-11-15T11:23:48.569Z,24.35
2017-11-15T11:24:51.046Z,29.20
2017-11-15T11:25:53.524Z,26.37
2017-11-15T11:26:56.002Z,32.33
2017-11-15T11:27:58.489Z,25.08
2017-11-15T11:29:00.967Z,31.65
2017-11-15T11:30:03.454Z,27.92
2017-11-15T11:31:05.951Z,28.70
2017-11-15T11:32:08.416Z,22.20
2017-11-15T11:33:11.007Z,23.15
2017-11-15T11:34:13.476Z,28.42
2017-11-15T11:35:15.958Z,26.55
2017-11-15T11:36:18.442Z,26.33
2017-11-15T11:37:20.904Z,23.58
2017-11-15T11:38:23.419Z,26.40
2017-11-15T11:39:25.896Z,23.38
2017-11-15T11:40:28.355Z,23.08
2017-11-15T11:41:30.826Z,24.92
2017-11-15T11:42:33.301Z,25.52
2017-11-15T11:43:35.791Z,21.85
2017-11-15T11:44:38.305Z,24.83
2017-11-15T11:45:40.781Z,27.65
2017-11-15T11:46:43.260Z,28.15
2017-11-15T11:47:45.728Z,25.40
2017-11-15T11:48:48.270Z,26.08
2017-11-15T11:49:50.764Z,21.50
2017-11-15T11:50:53.232Z,20.27
2017-11-15T11:51:55.691Z,26.90
2017-11-15T11:52:58.167Z,22.23
2017-11-15T11:54:00.667Z,24.25
2017-11-15T11:55:03.133Z,25.65
2017-11-15T11:56:05.601Z,25.05
2017-11-15T11:57:08.082Z,20.75
2017-11-15T11:58:10.646Z,29.08
2017-11-15T11:59:13.146Z,23.77
2017-11-15T12:00:15.619Z,27.23
2017-11-15T12:01:18.354Z,24.83
2017-11-15T12:02:20.934Z,24.55
2017-11-15T12:03:23.465Z,23.45
2017-11-15T12:04:26.000Z,22.80
2017-11-15T12:05:28.485Z,23.08
2017-11-15T12:06:31.139Z,24.08
2017-11-15T12:07:33.608Z,29.40
2017-11-15T12:08:36.084Z,22.10
2017-11-15T12:09:38.577Z,26.48
2017-11-15T12:10:41.061Z,23.87
2017-11-15T12:11:43.541Z,25.58
2017-11-15T12:12:46.009Z,23.27
2017-11-15T12:13:48.515Z,26.25
2017-11-15T12:14:51.051Z,25.17
2017-11-15T12:15:53.520Z,21.12
2017-11-15T12:16:55.984Z,20.02
2017-11-15T12:17:58.634Z,21.33
2017-11-15T12:19:01.134Z,26.23
2017-11-15T12:20:03.624Z,88.45
2017-11-15T12:21:06.092Z,138.12
2017-11-15T12:22:08.560Z,218.68
2017-11-15T12:23:11.028Z,135.68
2017-11-15T12:24:13.492Z,180.65
2017-11-15T12:25:16.008Z,62.05
2017-11-15T12:26:18.467Z,97.90
2017-11-15T12:27:20.933Z,87.15
2017-11-15T12:28:23.419Z,151.80
2017-11-15T12:29:25.891Z,62.30
2017-11-15T12:30:28.388Z,65.95
2017-11-15T12:31:30.871Z,73.50
2017-11-15T12:32:33.332Z,55.55
2017-11-15T12:33:35.797Z,48.08
2017-11-15T12:34:38.270Z,50.50
2017-11-15T12:35:40.757Z,32.72
2017-11-15T12:36:43.238Z,42.28
2017-11-15T12:37:45.704Z,44.70
2017-11-15T12:38:48.171Z,54.80
2017-11-15T12:39:50.650Z,31.85
2017-11-15T12:40:53.150Z,40.20
2017-11-15T12:41:55.632Z,42.85
2017-11-15T12:42:58.097Z,33.95
2017-11-15T12:44:00.565Z,205.02
2017-11-15T12:45:03.034Z,120.18
2017-11-15T12:46:05.532Z,189.80
2017-11-15T12:47:08.029Z,446.05
2017-11-15T12:48:10.507Z,257.45
2017-11-15T12:49:12.986Z,176.60
2017-11-15T12:50:15.449Z,77.93
2017-11-15T12:51:17.950Z,136.77
2017-11-15T12:52:20.436Z,67.00
2017-11-15T12:53:22.903Z,74.37
2017-11-15T12:54:25.363Z,102.85
2017-11-15T12:55:27.825Z,193.43
2017-11-15T12:56:30.337Z,127.50
2017-11-15T12:57:32.820Z,66.68
2017-11-15T12:58:35.306Z,109.47
2017-11-15T12:59:37.808Z,59.78
2017-11-15T13:00:40.300Z,46.97
2017-11-15T13:01:42.796Z,28.38
2017-11-15T13:02:45.292Z,20.15
2017-11-15T13:03:47.777Z,29.87
2017-11-15T13:04:50.258Z,26.62
2017-11-15T13:05:52.720Z,22.23
2017-11-15T13:06:55.227Z,20.55
2017-11-15T13:07:57.718Z,22.10
2017-11-15T13:09:00.202Z,21.50
2017-11-15T13:10:02.697Z,18.87
2017-11-15T13:11:05.182Z,23.85
2017-11-15T13:12:07.676Z,31.10
2017-11-15T13:13:10.391Z,16.60
2017-11-15T13:14:12.896Z,21.67
2017-11-15T13:15:15.383Z,26.73
2017-11-15T13:16:17.867Z,22.85
2017-11-15T13:17:20.369Z,23.50
2017-11-15T13:18:22.863Z,16.77
2017-11-15T13:19:25.354Z,20.37
2017-11-15T13:20:27.842Z,17.37
2017-11-15T13:21:30.321Z,18.08
2017-11-15T13:22:32.812Z,20.25
2017-11-15T13:23:35.299Z,18.80
2017-11-15T13:24:37.778Z,15.45
2017-11-15T13:25:40.240Z,16.42